sensor_id;sensor_type;location;lat;lon;timestamp;P1;durP1;ratioP1;P2;durP2;ratioP2
21806;SDS011;11065;50.786;7.840;2022-09-09T00:01:52;1.80;;;0.90;;
21806;SDS011;11065;50.786;7.840;2022-09-09T00:04:31;2.67;;;0.80;;
21806;SDS011;11065;50.786;7.840;2022-09-09T00:07:04;1.67;;;0.80;;
21806;SDS011;11065;50.786;7.840;2022-09-09T00:09:35;1.77;;;0.77;;
21806;SDS011;11065;50.786;7.840;2022-09-09T00:20:09;3.07;;;0.90;;
21806;SDS011;11065;50.786;7.840;2022-09-09T00:22:40;1.97;;;0.93;;
21806;SDS011;11065;50.786;7.840;2022-09-09T00:25:26;2.10;;;0.90;;
21806;SDS011;11065;50.786;7.840;2022-09-09T00:28:00;3.27;;;0.90;;
21806;SDS011;11065;50.786;7.840;2022-09-09T00:30:29;3.57;;;0.93;;
21806;SDS011;11065;50.786;7.840;2022-09-09T00:33:01;2.57;;;0.80;;
21806;SDS011;11065;50.786;7.840;2022-09-09T00:35:40;2.10;;;1.00;;
21806;SDS011;11065;50.786;7.840;2022-09-09T00:38:15;4.17;;;1.40;;
21806;SDS011;11065;50.786;7.840;2022-09-09T00:40:49;2.90;;;0.80;;
21806;SDS011;11065;50.786;7.840;2022-09-09T00:43:52;2.13;;;0.80;;
21806;SDS011;11065;50.786;7.840;2022-09-09T00:46:28;1.83;;;1.07;;
21806;SDS011;11065;50.786;7.840;2022-09-09T00:52:17;2.03;;;0.60;;
21806;SDS011;11065;50.786;7.840;2022-09-09T00:57:42;2.10;;;0.77;;
21806;SDS011;11065;50.786;7.840;2022-09-09T01:00:20;2.63;;;1.00;;
21806;SDS011;11065;50.786;7.840;2022-09-09T01:05:26;3.83;;;1.00;;
21806;SDS011;11065;50.786;7.840;2022-09-09T01:07:54;1.83;;;0.80;;
21806;SDS011;11065;50.786;7.840;2022-09-09T01:10:37;2.33;;;0.80;;
21806;SDS011;11065;50.786;7.840;2022-09-09T01:13:15;1.83;;;0.80;;
21806;SDS011;11065;50.786;7.840;2022-09-09T01:15:53;2.47;;;0.70;;
21806;SDS011;11065;50.786;7.840;2022-09-09T01:18:29;4.27;;;1.10;;
21806;SDS011;11065;50.786;7.840;2022-09-09T01:27:04;2.17;;;0.60;;
21806;SDS011;11065;50.786;7.840;2022-09-09T01:29:32;1.77;;;0.80;;
21806;SDS011;11065;50.786;7.840;2022-09-09T01:32:01;2.43;;;0.70;;
21806;SDS011;11065;50.786;7.840;2022-09-09T01:34:31;3.23;;;0.63;;
21806;SDS011;11065;50.786;7.840;2022-09-09T01:39:35;2.43;;;0.60;;
21806;SDS011;11065;50.786;7.840;2022-09-09T01:42:09;1.60;;;0.50;;
21806;SDS011;11065;50.786;7.840;2022-09-09T01:44:39;0.97;;;0.47;;
21806;SDS011;11065;50.786;7.840;2022-09-09T01:47:06;2.30;;;0.70;;
21806;SDS011;11065;50.786;7.840;2022-09-09T01:49:40;2.00;;;0.60;;
21806;SDS011;11065;50.786;7.840;2022-09-09T01:52:17;2.43;;;0.60;;
21806;SDS011;11065;50.786;7.840;2022-09-09T01:54:44;2.37;;;0.53;;
21806;SDS011;11065;50.786;7.840;2022-09-09T01:57:22;1.47;;;0.63;;
21806;SDS011;11065;50.786;7.840;2022-09-09T02:00:15;2.10;;;0.70;;
21806;SDS011;11065;50.786;7.840;2022-09-09T02:02:50;1.57;;;0.60;;
21806;SDS011;11065;50.786;7.840;2022-09-09T02:05:36;2.20;;;0.60;;
21806;SDS011;11065;50.786;7.840;2022-09-09T02:11:15;1.83;;;0.70;;
21806;SDS011;11065;50.786;7.840;2022-09-09T02:14:15;2.00;;;0.50;;
21806;SDS011;11065;50.786;7.840;2022-09-09T02:16:48;2.13;;;0.60;;
21806;SDS011;11065;50.786;7.840;2022-09-09T02:19:22;1.93;;;0.60;;
21806;SDS011;11065;50.786;7.840;2022-09-09T02:22:06;3.53;;;0.73;;
21806;SDS011;11065;50.786;7.840;2022-09-09T02:24:33;2.37;;;0.60;;
21806;SDS011;11065;50.786;7.840;2022-09-09T02:27:11;2.23;;;0.70;;
21806;SDS011;11065;50.786;7.840;2022-09-09T02:29:41;3.17;;;0.70;;
21806;SDS011;11065;50.786;7.840;2022-09-09T02:32:11;1.97;;;0.60;;
21806;SDS011;11065;50.786;7.840;2022-09-09T02:34:43;3.50;;;0.90;;
21806;SDS011;11065;50.786;7.840;2022-09-09T02:37:15;2.43;;;0.70;;
21806;SDS011;11065;50.786;7.840;2022-09-09T02:39:48;1.03;;;0.50;;
21806;SDS011;11065;50.786;7.840;2022-09-09T02:42:18;1.97;;;0.60;;
21806;SDS011;11065;50.786;7.840;2022-09-09T02:44:45;2.20;;;0.70;;
21806;SDS011;11065;50.786;7.840;2022-09-09T02:50:17;4.53;;;0.87;;
21806;SDS011;11065;50.786;7.840;2022-09-09T02:55:41;1.30;;;0.53;;
21806;SDS011;11065;50.786;7.840;2022-09-09T02:58:22;2.10;;;0.80;;
21806;SDS011;11065;50.786;7.840;2022-09-09T03:00:55;3.00;;;0.70;;
21806;SDS011;11065;50.786;7.840;2022-09-09T03:03:24;3.20;;;0.60;;
21806;SDS011;11065;50.786;7.840;2022-09-09T03:05:51;3.23;;;0.90;;
21806;SDS011;11065;50.786;7.840;2022-09-09T03:08:18;2.43;;;0.67;;
21806;SDS011;11065;50.786;7.840;2022-09-09T03:10:46;4.67;;;0.80;;
21806;SDS011;11065;50.786;7.840;2022-09-09T03:13:14;7.50;;;0.80;;
21806;SDS011;11065;50.786;7.840;2022-09-09T03:15:42;2.20;;;0.50;;
21806;SDS011;11065;50.786;7.840;2022-09-09T03:18:14;2.30;;;0.60;;
21806;SDS011;11065;50.786;7.840;2022-09-09T03:20:41;2.77;;;0.60;;
21806;SDS011;11065;50.786;7.840;2022-09-09T03:23:09;2.93;;;0.53;;
21806;SDS011;11065;50.786;7.840;2022-09-09T03:25:51;2.00;;;0.60;;
21806;SDS011;11065;50.786;7.840;2022-09-09T03:28:25;3.53;;;0.60;;
21806;SDS011;11065;50.786;7.840;2022-09-09T03:30:59;2.40;;;0.70;;
21806;SDS011;11065;50.786;7.840;2022-09-09T03:33:29;1.80;;;0.60;;
21806;SDS011;11065;50.786;7.840;2022-09-09T03:35:57;3.60;;;0.70;;
21806;SDS011;11065;50.786;7.840;2022-09-09T03:38:24;3.30;;;0.70;;
21806;SDS011;11065;50.786;7.840;2022-09-09T03:40:51;2.50;;;0.63;;
21806;SDS011;11065;50.786;7.840;2022-09-09T03:43:22;2.30;;;0.70;;
21806;SDS011;11065;50.786;7.840;2022-09-09T03:45:51;1.30;;;0.50;;
21806;SDS011;11065;50.786;7.840;2022-09-09T03:48:19;2.80;;;0.70;;
21806;SDS011;11065;50.786;7.840;2022-09-09T03:50:46;3.30;;;0.60;;
21806;SDS011;11065;50.786;7.840;2022-09-09T03:53:18;2.10;;;0.70;;
21806;SDS011;11065;50.786;7.840;2022-09-09T03:55:47;2.77;;;0.70;;
21806;SDS011;11065;50.786;7.840;2022-09-09T03:58:16;1.30;;;0.50;;
21806;SDS011;11065;50.786;7.840;2022-09-09T04:01:20;1.63;;;0.63;;
21806;SDS011;11065;50.786;7.840;2022-09-09T04:03:41;1.83;;;1.03;;
21806;SDS011;11065;50.786;7.840;2022-09-09T04:06:09;3.40;;;0.70;;
21806;SDS011;11065;50.786;7.840;2022-09-09T04:08:40;2.03;;;0.70;;
21806;SDS011;11065;50.786;7.840;2022-09-09T04:11:08;3.10;;;0.70;;
21806;SDS011;11065;50.786;7.840;2022-09-09T04:13:37;2.63;;;0.60;;
21806;SDS011;11065;50.786;7.840;2022-09-09T04:16:07;2.83;;;0.77;;
21806;SDS011;11065;50.786;7.840;2022-09-09T04:18:37;2.30;;;0.80;;
21806;SDS011;11065;50.786;7.840;2022-09-09T04:21:04;1.93;;;0.80;;
21806;SDS011;11065;50.786;7.840;2022-09-09T04:23:33;1.57;;;0.70;;
21806;SDS011;11065;50.786;7.840;2022-09-09T04:26:01;4.43;;;0.80;;
21806;SDS011;11065;50.786;7.840;2022-09-09T04:28:32;1.33;;;0.63;;
21806;SDS011;11065;50.786;7.840;2022-09-09T04:31:08;1.17;;;0.50;;
21806;SDS011;11065;50.786;7.840;2022-09-09T04:33:38;1.73;;;0.50;;
21806;SDS011;11065;50.786;7.840;2022-09-09T04:36:07;2.70;;;0.50;;
21806;SDS011;11065;50.786;7.840;2022-09-09T04:38:35;2.53;;;0.60;;
21806;SDS011;11065;50.786;7.840;2022-09-09T04:41:03;3.33;;;0.70;;
21806;SDS011;11065;50.786;7.840;2022-09-09T04:43:31;2.73;;;0.70;;
21806;SDS011;11065;50.786;7.840;2022-09-09T04:46:00;2.23;;;0.60;;
21806;SDS011;11065;50.786;7.840;2022-09-09T04:48:27;2.50;;;0.70;;
21806;SDS011;11065;50.786;7.840;2022-09-09T04:53:26;2.10;;;0.57;;
21806;SDS011;11065;50.786;7.840;2022-09-09T04:56:00;3.13;;;0.80;;
21806;SDS011;11065;50.786;7.840;2022-09-09T04:58:40;4.20;;;0.80;;
21806;SDS011;11065;50.786;7.840;2022-09-09T05:01:10;2.40;;;0.60;;
21806;SDS011;11065;50.786;7.840;2022-09-09T05:03:47;1.87;;;0.63;;
21806;SDS011;11065;50.786;7.840;2022-09-09T05:06:20;2.93;;;0.73;;
21806;SDS011;11065;50.786;7.840;2022-09-09T05:08:52;1.63;;;0.70;;
21806;SDS011;11065;50.786;7.840;2022-09-09T05:11:24;1.77;;;0.63;;
21806;SDS011;11065;50.786;7.840;2022-09-09T05:13:58;1.87;;;0.60;;
21806;SDS011;11065;50.786;7.840;2022-09-09T05:16:26;3.40;;;0.70;;
21806;SDS011;11065;50.786;7.840;2022-09-09T05:18:54;3.13;;;0.70;;
21806;SDS011;11065;50.786;7.840;2022-09-09T05:21:22;3.80;;;0.83;;
21806;SDS011;11065;50.786;7.840;2022-09-09T05:23:50;5.17;;;1.10;;
21806;SDS011;11065;50.786;7.840;2022-09-09T05:26:19;3.50;;;0.70;;
21806;SDS011;11065;50.786;7.840;2022-09-09T05:28:49;3.73;;;0.90;;
21806;SDS011;11065;50.786;7.840;2022-09-09T05:31:17;1.97;;;1.00;;
21806;SDS011;11065;50.786;7.840;2022-09-09T05:33:48;3.57;;;0.70;;
21806;SDS011;11065;50.786;7.840;2022-09-09T05:36:17;2.87;;;0.70;;
21806;SDS011;11065;50.786;7.840;2022-09-09T05:38:47;2.73;;;0.97;;
21806;SDS011;11065;50.786;7.840;2022-09-09T05:41:16;3.13;;;0.60;;
21806;SDS011;11065;50.786;7.840;2022-09-09T05:43:44;4.40;;;0.83;;
21806;SDS011;11065;50.786;7.840;2022-09-09T05:46:17;3.10;;;0.90;;
21806;SDS011;11065;50.786;7.840;2022-09-09T05:48:48;6.97;;;0.97;;
21806;SDS011;11065;50.786;7.840;2022-09-09T05:51:20;2.77;;;0.87;;
21806;SDS011;11065;50.786;7.840;2022-09-09T05:53:48;2.70;;;0.63;;
21806;SDS011;11065;50.786;7.840;2022-09-09T05:56:18;3.13;;;0.70;;
21806;SDS011;11065;50.786;7.840;2022-09-09T05:58:51;4.13;;;0.90;;
21806;SDS011;11065;50.786;7.840;2022-09-09T06:01:22;3.70;;;1.10;;
21806;SDS011;11065;50.786;7.840;2022-09-09T06:03:51;3.60;;;0.80;;
21806;SDS011;11065;50.786;7.840;2022-09-09T06:06:22;2.40;;;0.70;;
21806;SDS011;11065;50.786;7.840;2022-09-09T06:08:55;3.27;;;1.00;;
21806;SDS011;11065;50.786;7.840;2022-09-09T06:11:32;1.70;;;0.60;;
21806;SDS011;11065;50.786;7.840;2022-09-09T06:13:59;3.03;;;0.80;;
21806;SDS011;11065;50.786;7.840;2022-09-09T06:16:28;5.33;;;0.77;;
21806;SDS011;11065;50.786;7.840;2022-09-09T06:18:59;7.47;;;1.47;;
21806;SDS011;11065;50.786;7.840;2022-09-09T06:21:28;2.33;;;0.70;;
21806;SDS011;11065;50.786;7.840;2022-09-09T06:24:01;4.57;;;1.00;;
21806;SDS011;11065;50.786;7.840;2022-09-09T06:26:31;2.90;;;0.70;;
21806;SDS011;11065;50.786;7.840;2022-09-09T06:29:01;1.77;;;0.70;;
21806;SDS011;11065;50.786;7.840;2022-09-09T06:31:31;3.07;;;0.73;;
21806;SDS011;11065;50.786;7.840;2022-09-09T06:34:07;4.67;;;1.03;;
21806;SDS011;11065;50.786;7.840;2022-09-09T06:36:38;2.63;;;0.80;;
21806;SDS011;11065;50.786;7.840;2022-09-09T06:39:06;5.00;;;0.83;;
21806;SDS011;11065;50.786;7.840;2022-09-09T06:41:40;2.40;;;0.60;;
21806;SDS011;11065;50.786;7.840;2022-09-09T06:44:27;3.03;;;1.10;;
21806;SDS011;11065;50.786;7.840;2022-09-09T06:46:59;2.23;;;0.77;;
21806;SDS011;11065;50.786;7.840;2022-09-09T06:49:26;1.57;;;0.60;;
21806;SDS011;11065;50.786;7.840;2022-09-09T06:51:53;2.20;;;0.80;;
21806;SDS011;11065;50.786;7.840;2022-09-09T06:54:21;2.60;;;0.83;;
21806;SDS011;11065;50.786;7.840;2022-09-09T06:56:50;2.97;;;1.00;;
21806;SDS011;11065;50.786;7.840;2022-09-09T06:59:21;3.60;;;1.40;;
21806;SDS011;11065;50.786;7.840;2022-09-09T07:01:51;3.03;;;0.80;;
21806;SDS011;11065;50.786;7.840;2022-09-09T07:04:22;3.47;;;1.10;;
21806;SDS011;11065;50.786;7.840;2022-09-09T07:06:48;2.33;;;0.80;;
21806;SDS011;11065;50.786;7.840;2022-09-09T07:09:20;2.63;;;0.77;;
21806;SDS011;11065;50.786;7.840;2022-09-09T07:11:49;3.23;;;0.63;;
21806;SDS011;11065;50.786;7.840;2022-09-09T07:14:20;4.93;;;1.00;;
21806;SDS011;11065;50.786;7.840;2022-09-09T07:16:54;4.23;;;1.07;;
21806;SDS011;11065;50.786;7.840;2022-09-09T07:19:26;3.23;;;0.70;;
21806;SDS011;11065;50.786;7.840;2022-09-09T07:21:54;1.83;;;0.60;;
21806;SDS011;11065;50.786;7.840;2022-09-09T07:24:23;3.13;;;1.00;;
21806;SDS011;11065;50.786;7.840;2022-09-09T07:26:50;4.40;;;0.80;;
21806;SDS011;11065;50.786;7.840;2022-09-09T07:29:18;2.83;;;0.87;;
21806;SDS011;11065;50.786;7.840;2022-09-09T07:31:46;2.57;;;0.80;;
21806;SDS011;11065;50.786;7.840;2022-09-09T07:34:19;3.87;;;1.10;;
21806;SDS011;11065;50.786;7.840;2022-09-09T07:36:47;2.90;;;0.67;;
21806;SDS011;11065;50.786;7.840;2022-09-09T07:39:16;4.30;;;1.10;;
21806;SDS011;11065;50.786;7.840;2022-09-09T07:41:48;3.10;;;0.80;;
21806;SDS011;11065;50.786;7.840;2022-09-09T07:44:20;3.77;;;1.00;;
21806;SDS011;11065;50.786;7.840;2022-09-09T07:47:02;4.70;;;1.10;;
21806;SDS011;11065;50.786;7.840;2022-09-09T07:49:35;2.67;;;0.93;;
21806;SDS011;11065;50.786;7.840;2022-09-09T07:52:03;3.17;;;0.80;;
21806;SDS011;11065;50.786;7.840;2022-09-09T07:54:31;4.63;;;1.00;;
21806;SDS011;11065;50.786;7.840;2022-09-09T07:56:59;5.03;;;0.97;;
21806;SDS011;11065;50.786;7.840;2022-09-09T07:59:28;4.37;;;1.13;;
21806;SDS011;11065;50.786;7.840;2022-09-09T08:01:56;2.80;;;0.77;;
21806;SDS011;11065;50.786;7.840;2022-09-09T08:04:27;2.20;;;0.60;;
21806;SDS011;11065;50.786;7.840;2022-09-09T08:06:55;5.37;;;0.90;;
21806;SDS011;11065;50.786;7.840;2022-09-09T08:09:26;6.27;;;0.97;;
21806;SDS011;11065;50.786;7.840;2022-09-09T08:12:05;4.63;;;1.00;;
21806;SDS011;11065;50.786;7.840;2022-09-09T08:14:34;3.90;;;1.17;;
21806;SDS011;11065;50.786;7.840;2022-09-09T08:17:01;4.80;;;1.20;;
21806;SDS011;11065;50.786;7.840;2022-09-09T08:19:30;6.73;;;1.10;;
21806;SDS011;11065;50.786;7.840;2022-09-09T08:22:00;3.90;;;1.00;;
21806;SDS011;11065;50.786;7.840;2022-09-09T08:24:30;3.07;;;1.20;;
21806;SDS011;11065;50.786;7.840;2022-09-09T08:26:57;3.73;;;0.97;;
21806;SDS011;11065;50.786;7.840;2022-09-09T08:29:24;3.33;;;0.90;;
21806;SDS011;11065;50.786;7.840;2022-09-09T08:31:53;3.30;;;1.10;;
21806;SDS011;11065;50.786;7.840;2022-09-09T08:34:25;3.80;;;0.80;;
21806;SDS011;11065;50.786;7.840;2022-09-09T08:36:55;3.55;;;0.85;;
21806;SDS011;11065;50.786;7.840;2022-09-09T08:39:28;2.58;;;0.77;;
21806;SDS011;11065;50.786;7.840;2022-09-09T08:41:58;2.45;;;0.70;;
21806;SDS011;11065;50.786;7.840;2022-09-09T08:44:39;2.15;;;0.60;;
21806;SDS011;11065;50.786;7.840;2022-09-09T08:50:22;2.70;;;0.50;;
21806;SDS011;11065;50.786;7.840;2022-09-09T08:53:24;4.05;;;0.80;;
21806;SDS011;11065;50.786;7.840;2022-09-09T08:56:04;4.03;;;0.75;;
21806;SDS011;11065;50.786;7.840;2022-09-09T08:58:48;3.40;;;0.70;;
21806;SDS011;11065;50.786;7.840;2022-09-09T09:01:41;2.67;;;0.70;;
21806;SDS011;11065;50.786;7.840;2022-09-09T09:04:20;2.22;;;0.68;;
21806;SDS011;11065;50.786;7.840;2022-09-09T09:07:03;2.92;;;0.70;;
21806;SDS011;11065;50.786;7.840;2022-09-09T09:12:21;1.90;;;0.50;;
21806;SDS011;11065;50.786;7.840;2022-09-09T09:14:51;4.28;;;0.90;;
21806;SDS011;11065;50.786;7.840;2022-09-09T09:17:19;3.72;;;0.88;;
21806;SDS011;11065;50.786;7.840;2022-09-09T09:19:47;3.67;;;0.60;;
21806;SDS011;11065;50.786;7.840;2022-09-09T09:22:17;2.55;;;0.75;;
21806;SDS011;11065;50.786;7.840;2022-09-09T09:24:54;3.08;;;0.70;;
21806;SDS011;11065;50.786;7.840;2022-09-09T09:30:12;2.97;;;0.77;;
21806;SDS011;11065;50.786;7.840;2022-09-09T09:33:01;3.30;;;0.68;;
21806;SDS011;11065;50.786;7.840;2022-09-09T09:35:32;4.43;;;0.60;;
21806;SDS011;11065;50.786;7.840;2022-09-09T09:38:19;3.58;;;0.98;;
21806;SDS011;11065;50.786;7.840;2022-09-09T09:41:11;4.55;;;0.70;;
21806;SDS011;11065;50.786;7.840;2022-09-09T09:43:39;1.90;;;0.68;;
21806;SDS011;11065;50.786;7.840;2022-09-09T09:46:18;4.00;;;0.80;;
21806;SDS011;11065;50.786;7.840;2022-09-09T09:49:00;3.08;;;0.70;;
21806;SDS011;11065;50.786;7.840;2022-09-09T09:51:33;2.70;;;0.75;;
21806;SDS011;11065;50.786;7.840;2022-09-09T09:56:41;3.92;;;0.70;;
21806;SDS011;11065;50.786;7.840;2022-09-09T10:02:15;1.85;;;0.50;;
21806;SDS011;11065;50.786;7.840;2022-09-09T10:05:16;1.52;;;0.68;;
21806;SDS011;11065;50.786;7.840;2022-09-09T10:11:03;2.08;;;0.50;;
21806;SDS011;11065;50.786;7.840;2022-09-09T10:13:53;4.72;;;0.95;;
21806;SDS011;11065;50.786;7.840;2022-09-09T10:19:32;3.10;;;0.60;;
21806;SDS011;11065;50.786;7.840;2022-09-09T10:24:55;2.90;;;0.60;;
21806;SDS011;11065;50.786;7.840;2022-09-09T10:33:38;1.92;;;0.60;;
21806;SDS011;11065;50.786;7.840;2022-09-09T10:36:24;3.92;;;0.70;;
21806;SDS011;11065;50.786;7.840;2022-09-09T10:38:53;4.25;;;0.55;;
21806;SDS011;11065;50.786;7.840;2022-09-09T10:47:10;2.83;;;0.85;;
21806;SDS011;11065;50.786;7.840;2022-09-09T10:53:08;5.50;;;0.88;;
21806;SDS011;11065;50.786;7.840;2022-09-09T10:55:43;3.78;;;0.60;;
21806;SDS011;11065;50.786;7.840;2022-09-09T10:58:18;2.63;;;0.52;;
21806;SDS011;11065;50.786;7.840;2022-09-09T11:00:57;3.10;;;0.70;;
21806;SDS011;11065;50.786;7.840;2022-09-09T11:03:30;2.92;;;0.50;;
21806;SDS011;11065;50.786;7.840;2022-09-09T11:06:06;2.25;;;0.80;;
21806;SDS011;11065;50.786;7.840;2022-09-09T11:08:39;1.73;;;0.57;;
21806;SDS011;11065;50.786;7.840;2022-09-09T11:11:13;3.55;;;0.60;;
21806;SDS011;11065;50.786;7.840;2022-09-09T11:16:28;2.97;;;0.80;;
21806;SDS011;11065;50.786;7.840;2022-09-09T11:19:17;2.50;;;0.52;;
21806;SDS011;11065;50.786;7.840;2022-09-09T11:22:06;2.33;;;0.60;;
21806;SDS011;11065;50.786;7.840;2022-09-09T11:24:50;3.17;;;0.70;;
21806;SDS011;11065;50.786;7.840;2022-09-09T11:27:25;3.17;;;0.70;;
21806;SDS011;11065;50.786;7.840;2022-09-09T11:36:03;2.05;;;0.60;;
21806;SDS011;11065;50.786;7.840;2022-09-09T11:38:57;1.60;;;0.50;;
21806;SDS011;11065;50.786;7.840;2022-09-09T11:42:15;2.50;;;0.60;;
21806;SDS011;11065;50.786;7.840;2022-09-09T11:44:44;1.70;;;0.65;;
21806;SDS011;11065;50.786;7.840;2022-09-09T11:47:22;3.70;;;0.80;;
21806;SDS011;11065;50.786;7.840;2022-09-09T11:50:08;3.35;;;0.80;;
21806;SDS011;11065;50.786;7.840;2022-09-09T11:52:36;3.20;;;0.60;;
21806;SDS011;11065;50.786;7.840;2022-09-09T11:55:23;6.38;;;0.75;;
21806;SDS011;11065;50.786;7.840;2022-09-09T11:57:59;2.83;;;0.52;;
21806;SDS011;11065;50.786;7.840;2022-09-09T12:00:49;3.10;;;0.68;;
21806;SDS011;11065;50.786;7.840;2022-09-09T12:06:29;2.20;;;0.60;;
21806;SDS011;11065;50.786;7.840;2022-09-09T12:09:38;1.83;;;0.60;;
21806;SDS011;11065;50.786;7.840;2022-09-09T12:17:19;1.52;;;0.50;;
21806;SDS011;11065;50.786;7.840;2022-09-09T12:19:48;0.93;;;0.40;;
21806;SDS011;11065;50.786;7.840;2022-09-09T12:28:01;1.52;;;0.50;;
21806;SDS011;11065;50.786;7.840;2022-09-09T12:30:45;1.63;;;0.40;;
21806;SDS011;11065;50.786;7.840;2022-09-09T12:33:19;3.08;;;0.50;;
21806;SDS011;11065;50.786;7.840;2022-09-09T12:35:50;2.45;;;0.40;;
21806;SDS011;11065;50.786;7.840;2022-09-09T12:38:33;1.70;;;0.40;;
21806;SDS011;11065;50.786;7.840;2022-09-09T12:41:05;4.63;;;0.60;;
21806;SDS011;11065;50.786;7.840;2022-09-09T12:43:33;1.83;;;0.47;;
21806;SDS011;11065;50.786;7.840;2022-09-09T12:46:03;1.50;;;0.40;;
21806;SDS011;11065;50.786;7.840;2022-09-09T12:48:38;2.45;;;0.45;;
21806;SDS011;11065;50.786;7.840;2022-09-09T12:51:18;2.97;;;0.85;;
21806;SDS011;11065;50.786;7.840;2022-09-09T12:53:51;3.78;;;0.50;;
21806;SDS011;11065;50.786;7.840;2022-09-09T12:56:19;1.25;;;0.40;;
21806;SDS011;11065;50.786;7.840;2022-09-09T12:58:49;2.88;;;0.50;;
21806;SDS011;11065;50.786;7.840;2022-09-09T13:01:22;2.05;;;0.50;;
21806;SDS011;11065;50.786;7.840;2022-09-09T13:04:02;2.33;;;0.60;;
21806;SDS011;11065;50.786;7.840;2022-09-09T13:06:29;2.55;;;0.35;;
21806;SDS011;11065;50.786;7.840;2022-09-09T13:08:59;1.80;;;0.43;;
21806;SDS011;11065;50.786;7.840;2022-09-09T13:11:29;2.88;;;0.93;;
21806;SDS011;11065;50.786;7.840;2022-09-09T13:14:05;1.75;;;0.50;;
21806;SDS011;11065;50.786;7.840;2022-09-09T13:16:33;1.67;;;0.50;;
21806;SDS011;11065;50.786;7.840;2022-09-09T13:19:08;1.48;;;0.35;;
21806;SDS011;11065;50.786;7.840;2022-09-09T13:21:41;1.15;;;0.35;;
21806;SDS011;11065;50.786;7.840;2022-09-09T13:26:56;2.05;;;0.47;;
21806;SDS011;11065;50.786;7.840;2022-09-09T13:29:31;1.70;;;0.40;;
21806;SDS011;11065;50.786;7.840;2022-09-09T13:32:05;1.67;;;0.40;;
21806;SDS011;11065;50.786;7.840;2022-09-09T13:34:38;1.25;;;0.40;;
21806;SDS011;11065;50.786;7.840;2022-09-09T13:37:06;1.38;;;0.55;;
21806;SDS011;11065;50.786;7.840;2022-09-09T13:39:50;1.40;;;0.30;;
21806;SDS011;11065;50.786;7.840;2022-09-09T13:42:26;2.85;;;0.38;;
21806;SDS011;11065;50.786;7.840;2022-09-09T13:44:58;1.45;;;0.40;;
21806;SDS011;11065;50.786;7.840;2022-09-09T13:47:33;2.40;;;0.45;;
21806;SDS011;11065;50.786;7.840;2022-09-09T13:50:19;1.88;;;0.60;;
21806;SDS011;11065;50.786;7.840;2022-09-09T13:52:54;1.27;;;0.40;;
21806;SDS011;11065;50.786;7.840;2022-09-09T13:55:27;1.17;;;0.32;;
21806;SDS011;11065;50.786;7.840;2022-09-09T13:57:56;1.90;;;0.52;;
21806;SDS011;11065;50.786;7.840;2022-09-09T14:00:30;2.47;;;0.43;;
21806;SDS011;11065;50.786;7.840;2022-09-09T14:02:59;2.92;;;0.40;;
21806;SDS011;11065;50.786;7.840;2022-09-09T14:05:32;4.20;;;0.38;;
21806;SDS011;11065;50.786;7.840;2022-09-09T14:07:59;2.22;;;0.40;;
21806;SDS011;11065;50.786;7.840;2022-09-09T14:10:27;1.42;;;0.43;;
21806;SDS011;11065;50.786;7.840;2022-09-09T14:12:53;1.95;;;0.40;;
21806;SDS011;11065;50.786;7.840;2022-09-09T14:15:20;1.23;;;0.43;;
21806;SDS011;11065;50.786;7.840;2022-09-09T14:17:48;1.50;;;0.38;;
21806;SDS011;11065;50.786;7.840;2022-09-09T14:20:15;2.35;;;0.38;;
21806;SDS011;11065;50.786;7.840;2022-09-09T14:22:43;1.60;;;0.38;;
21806;SDS011;11065;50.786;7.840;2022-09-09T14:25:10;0.95;;;0.43;;
21806;SDS011;11065;50.786;7.840;2022-09-09T14:27:39;1.15;;;0.40;;
21806;SDS011;11065;50.786;7.840;2022-09-09T14:30:07;2.40;;;0.40;;
21806;SDS011;11065;50.786;7.840;2022-09-09T14:32:34;6.72;;;0.93;;
21806;SDS011;11065;50.786;7.840;2022-09-09T14:35:01;1.65;;;0.50;;
21806;SDS011;11065;50.786;7.840;2022-09-09T14:37:28;2.23;;;0.50;;
21806;SDS011;11065;50.786;7.840;2022-09-09T14:39:57;1.43;;;0.40;;
21806;SDS011;11065;50.786;7.840;2022-09-09T14:42:24;2.87;;;0.60;;
21806;SDS011;11065;50.786;7.840;2022-09-09T14:44:52;0.80;;;0.30;;
21806;SDS011;11065;50.786;7.840;2022-09-09T14:47:19;3.13;;;0.60;;
21806;SDS011;11065;50.786;7.840;2022-09-09T14:49:46;1.43;;;0.40;;
21806;SDS011;11065;50.786;7.840;2022-09-09T14:52:15;3.77;;;0.40;;
21806;SDS011;11065;50.786;7.840;2022-09-09T14:54:42;2.03;;;0.40;;
21806;SDS011;11065;50.786;7.840;2022-09-09T14:57:09;2.87;;;0.50;;
21806;SDS011;11065;50.786;7.840;2022-09-09T14:59:36;2.43;;;0.50;;
21806;SDS011;11065;50.786;7.840;2022-09-09T15:02:03;2.97;;;0.50;;
21806;SDS011;11065;50.786;7.840;2022-09-09T15:04:31;1.80;;;0.60;;
21806;SDS011;11065;50.786;7.840;2022-09-09T15:06:57;1.83;;;0.43;;
21806;SDS011;11065;50.786;7.840;2022-09-09T15:09:25;1.33;;;0.50;;
21806;SDS011;11065;50.786;7.840;2022-09-09T15:11:51;1.93;;;0.53;;
21806;SDS011;11065;50.786;7.840;2022-09-09T15:14:18;1.43;;;0.40;;
21806;SDS011;11065;50.786;7.840;2022-09-09T15:16:50;2.93;;;0.50;;
21806;SDS011;11065;50.786;7.840;2022-09-09T15:19:17;1.70;;;0.40;;
21806;SDS011;11065;50.786;7.840;2022-09-09T15:21:44;2.27;;;0.40;;
21806;SDS011;11065;50.786;7.840;2022-09-09T15:24:11;1.50;;;0.40;;
21806;SDS011;11065;50.786;7.840;2022-09-09T15:26:39;1.70;;;0.50;;
21806;SDS011;11065;50.786;7.840;2022-09-09T15:29:06;1.13;;;0.37;;
21806;SDS011;11065;50.786;7.840;2022-09-09T15:31:34;1.43;;;0.60;;
21806;SDS011;11065;50.786;7.840;2022-09-09T15:34:02;2.03;;;0.70;;
21806;SDS011;11065;50.786;7.840;2022-09-09T15:38:59;1.67;;;0.50;;
21806;SDS011;11065;50.786;7.840;2022-09-09T15:41:27;3.03;;;0.40;;
21806;SDS011;11065;50.786;7.840;2022-09-09T15:43:55;1.60;;;0.40;;
21806;SDS011;11065;50.786;7.840;2022-09-09T15:46:36;1.93;;;0.30;;
21806;SDS011;11065;50.786;7.840;2022-09-09T15:49:11;1.67;;;0.50;;
21806;SDS011;11065;50.786;7.840;2022-09-09T15:51:43;2.43;;;0.50;;
21806;SDS011;11065;50.786;7.840;2022-09-09T15:54:12;1.13;;;0.40;;
21806;SDS011;11065;50.786;7.840;2022-09-09T15:56:40;1.80;;;0.50;;
21806;SDS011;11065;50.786;7.840;2022-09-09T15:59:08;1.70;;;0.50;;
21806;SDS011;11065;50.786;7.840;2022-09-09T16:01:35;1.50;;;0.40;;
21806;SDS011;11065;50.786;7.840;2022-09-09T16:04:02;3.70;;;0.57;;
21806;SDS011;11065;50.786;7.840;2022-09-09T16:06:30;1.93;;;0.50;;
21806;SDS011;11065;50.786;7.840;2022-09-09T16:08:57;3.13;;;0.50;;
21806;SDS011;11065;50.786;7.840;2022-09-09T16:11:28;1.17;;;0.50;;
21806;SDS011;11065;50.786;7.840;2022-09-09T16:13:57;1.60;;;0.30;;
21806;SDS011;11065;50.786;7.840;2022-09-09T16:16:25;2.40;;;0.50;;
21806;SDS011;11065;50.786;7.840;2022-09-09T16:18:57;1.70;;;0.40;;
21806;SDS011;11065;50.786;7.840;2022-09-09T16:21:33;2.03;;;0.57;;
21806;SDS011;11065;50.786;7.840;2022-09-09T16:24:03;1.33;;;0.30;;
21806;SDS011;11065;50.786;7.840;2022-09-09T16:26:31;0.80;;;0.30;;
21806;SDS011;11065;50.786;7.840;2022-09-09T16:29:00;1.53;;;0.37;;
21806;SDS011;11065;50.786;7.840;2022-09-09T16:31:29;1.53;;;0.30;;
21806;SDS011;11065;50.786;7.840;2022-09-09T16:33:58;1.27;;;0.30;;
21806;SDS011;11065;50.786;7.840;2022-09-09T16:36:26;1.13;;;0.40;;
21806;SDS011;11065;50.786;7.840;2022-09-09T16:38:56;0.53;;;0.30;;
21806;SDS011;11065;50.786;7.840;2022-09-09T16:41:26;0.30;;;0.20;;
21806;SDS011;11065;50.786;7.840;2022-09-09T16:44:04;1.60;;;0.30;;
21806;SDS011;11065;50.786;7.840;2022-09-09T16:46:36;0.30;;;0.20;;
21806;SDS011;11065;50.786;7.840;2022-09-09T16:49:06;1.10;;;0.20;;
21806;SDS011;11065;50.786;7.840;2022-09-09T16:51:39;1.43;;;0.30;;
21806;SDS011;11065;50.786;7.840;2022-09-09T16:54:09;1.47;;;0.40;;
21806;SDS011;11065;50.786;7.840;2022-09-09T16:56:38;0.73;;;0.10;;
21806;SDS011;11065;50.786;7.840;2022-09-09T16:59:16;1.43;;;0.40;;
21806;SDS011;11065;50.786;7.840;2022-09-09T17:01:46;2.53;;;0.40;;
21806;SDS011;11065;50.786;7.840;2022-09-09T17:04:14;1.37;;;0.30;;